<?xml version="1.0" encoding="UTF-8" standalone="no" ?>
<gpx xmlns="http://www.topografix.com/GPX/1/1" xmlns:xsi="http://www.w3.org/2001/XMLSchema-instance" xsi:schemaLocation="http://www.topografix.com/GPX/1/1 http://www.topografix.com/GPX/1/1/gpx.xsd" version="1.1" creator="VisuGPX - https://www.visugpx.com">
  <metadata>
    <name>De la tourbière du Mont Bar à la Potence d'Allègre</name>
  </metadata>
  <wpt lat="45.21006" lon="3.70992">
    <ele>1037</ele>
    <name><![CDATA[Délaissé à 800m au Nord d'Allègre]]></name>
  </wpt>
  <wpt lat="45.20643" lon="3.71582">
    <ele>1040</ele>
    <name><![CDATA[Croisement, continuer tout droit]]></name>
  </wpt>
  <wpt lat="45.19916" lon="3.72733">
    <ele>1148</ele>
    <name><![CDATA[Bord Nord du cratère]]></name>
  </wpt>
  <wpt lat="45.19545" lon="3.72633">
    <ele>1145</ele>
    <name><![CDATA[Bord Sud, début descente]]></name>
  </wpt>
  <wpt lat="45.19194" lon="3.72889">
    <ele>1039</ele>
    <name><![CDATA[Carrefour, prendre à droite piste balisée]]></name>
  </wpt>
  <wpt lat="45.19758" lon="3.7178">
    <ele>1039</ele>
    <name><![CDATA[Quitter GR, prendre piste herbeuse à gauche]]></name>
  </wpt>
  <wpt lat="45.20036" lon="3.71458">
    <ele>1013</ele>
    <name><![CDATA[Croisement, prendre en face]]></name>
  </wpt>
  <wpt lat="45.20002" lon="3.71139">
    <ele>1055</ele>
    <name><![CDATA[Traverser route principale, prendre rue montante]]></name>
  </wpt>
  <wpt lat="45.20425" lon="3.71222">
    <ele>1058</ele>
    <name><![CDATA[Quitter la route, prendre piste herbeuse à gauche]]></name>
  </wpt>
  <wpt lat="45.20993" lon="3.70999">
    <ele>1037</ele>
    <name><![CDATA[Arrivée au parking du départ (délaissé de route)]]></name>
  </wpt>
  <trk>
    <name><![CDATA[De la tourbière du Mont Bar à la Potence d'Allègre]]></name>
    <trkseg>
      <trkpt lat="45.21006" lon="3.70992">
        <ele>1037</ele>
        <time>2016-09-20T14:46:19+02:00</time>
      </trkpt>
      <trkpt lat="45.21029" lon="3.70983">
        <ele>1036</ele>
        <time>2016-09-20T14:50:07+02:00</time>
      </trkpt>
      <trkpt lat="45.21054" lon="3.70986">
        <ele>1035</ele>
        <time>2016-09-20T14:50:37+02:00</time>
      </trkpt>
      <trkpt lat="45.21077" lon="3.70991">
        <ele>1034</ele>
        <time>2016-09-20T14:51:06+02:00</time>
      </trkpt>
      <trkpt lat="45.21102" lon="3.70996">
        <ele>1034</ele>
        <time>2016-09-20T14:52:25+02:00</time>
      </trkpt>
      <trkpt lat="45.21143" lon="3.71018">
        <ele>1033</ele>
        <time>2016-09-20T14:52:48+02:00</time>
      </trkpt>
      <trkpt lat="45.21123" lon="3.71025">
        <ele>1032</ele>
        <time>2016-09-20T14:53:44+02:00</time>
      </trkpt>
      <trkpt lat="45.21091" lon="3.71027">
        <ele>1031</ele>
        <time>2016-09-20T14:54:08+02:00</time>
      </trkpt>
      <trkpt lat="45.21075" lon="3.71038">
        <ele>1030</ele>
        <time>2021-08-03T18:39:25+02:00</time>
      </trkpt>
      <trkpt lat="45.21067" lon="3.71062">
        <ele>1028</ele>
        <time>2016-09-20T14:54:41+02:00</time>
      </trkpt>
      <trkpt lat="45.21043" lon="3.71086">
        <ele>1026</ele>
        <time>2016-09-20T14:55:11+02:00</time>
      </trkpt>
      <trkpt lat="45.21019" lon="3.71104">
        <ele>1026</ele>
        <time>2016-09-20T14:55:37+02:00</time>
      </trkpt>
      <trkpt lat="45.21005" lon="3.71138">
        <ele>1026</ele>
        <time>2016-09-20T14:56:03+02:00</time>
      </trkpt>
      <trkpt lat="45.20991" lon="3.71172">
        <ele>1026</ele>
        <time>2016-09-20T14:56:50+02:00</time>
      </trkpt>
      <trkpt lat="45.20986" lon="3.71211">
        <ele>1026</ele>
        <time>2016-09-20T14:57:59+02:00</time>
      </trkpt>
      <trkpt lat="45.20975" lon="3.71248">
        <ele>1026</ele>
        <time>2016-09-20T14:59:34+02:00</time>
      </trkpt>
      <trkpt lat="45.20965" lon="3.71283">
        <ele>1028</ele>
        <time>2016-09-20T15:00:09+02:00</time>
      </trkpt>
      <trkpt lat="45.20956" lon="3.7132">
        <ele>1029</ele>
        <time>2016-09-20T15:00:39+02:00</time>
      </trkpt>
      <trkpt lat="45.20948" lon="3.71357">
        <ele>1029</ele>
        <time>2016-09-20T15:01:08+02:00</time>
      </trkpt>
      <trkpt lat="45.20925" lon="3.71401">
        <ele>1031</ele>
        <time>2021-08-03T18:40:20+02:00</time>
      </trkpt>
      <trkpt lat="45.20905" lon="3.7142">
        <ele>1032</ele>
        <time>2016-09-20T15:01:38+02:00</time>
      </trkpt>
      <trkpt lat="45.20886" lon="3.71443">
        <ele>1033</ele>
        <time>2016-09-20T15:02:42+02:00</time>
      </trkpt>
      <trkpt lat="45.20867" lon="3.71458">
        <ele>1034</ele>
        <time>2016-09-20T15:03:54+02:00</time>
      </trkpt>
      <trkpt lat="45.20845" lon="3.71476">
        <ele>1035</ele>
        <time>2016-09-20T15:04:21+02:00</time>
      </trkpt>
      <trkpt lat="45.20821" lon="3.71491">
        <ele>1036</ele>
        <time>2016-09-20T15:04:47+02:00</time>
      </trkpt>
      <trkpt lat="45.20795" lon="3.71505">
        <ele>1037</ele>
        <time>2016-09-20T15:05:10+02:00</time>
      </trkpt>
      <trkpt lat="45.2077" lon="3.71525">
        <ele>1038</ele>
        <time>2016-09-20T15:05:38+02:00</time>
      </trkpt>
      <trkpt lat="45.20747" lon="3.71539">
        <ele>1038</ele>
        <time>2016-09-20T15:06:07+02:00</time>
      </trkpt>
      <trkpt lat="45.20723" lon="3.71555">
        <ele>1038</ele>
        <time>2016-09-20T15:06:36+02:00</time>
      </trkpt>
      <trkpt lat="45.20697" lon="3.71566">
        <ele>1039</ele>
        <time>2016-09-20T15:07:13+02:00</time>
      </trkpt>
      <trkpt lat="45.2067" lon="3.71573">
        <ele>1039</ele>
        <time>2016-09-20T15:07:41+02:00</time>
      </trkpt>
      <trkpt lat="45.20643" lon="3.71582">
        <ele>1040</ele>
        <time>2016-09-20T15:09:25+02:00</time>
      </trkpt>
      <trkpt lat="45.20616" lon="3.71586">
        <ele>1040</ele>
        <time>2016-09-20T15:10:11+02:00</time>
      </trkpt>
      <trkpt lat="45.20587" lon="3.71585">
        <ele>1041</ele>
        <time>2016-09-20T15:10:34+02:00</time>
      </trkpt>
      <trkpt lat="45.20563" lon="3.71586">
        <ele>1040</ele>
        <time>2016-09-20T15:11:03+02:00</time>
      </trkpt>
      <trkpt lat="45.20534" lon="3.71587">
        <ele>1038</ele>
        <time>2016-09-20T15:11:50+02:00</time>
      </trkpt>
      <trkpt lat="45.20507" lon="3.71591">
        <ele>1037</ele>
        <time>2016-09-20T15:12:21+02:00</time>
      </trkpt>
      <trkpt lat="45.20482" lon="3.71588">
        <ele>1036</ele>
        <time>2016-09-20T15:12:47+02:00</time>
      </trkpt>
      <trkpt lat="45.20448" lon="3.71584">
        <ele>1034</ele>
        <time>2016-09-20T15:13:10+02:00</time>
      </trkpt>
      <trkpt lat="45.20425" lon="3.71584">
        <ele>1033</ele>
        <time>2016-09-20T15:13:43+02:00</time>
      </trkpt>
      <trkpt lat="45.20399" lon="3.71583">
        <ele>1033</ele>
        <time>2016-09-20T15:14:09+02:00</time>
      </trkpt>
      <trkpt lat="45.20375" lon="3.7158">
        <ele>1033</ele>
        <time>2016-09-20T15:15:03+02:00</time>
      </trkpt>
      <trkpt lat="45.20344" lon="3.71567">
        <ele>1032</ele>
        <time>2016-09-20T15:15:30+02:00</time>
      </trkpt>
      <trkpt lat="45.20319" lon="3.7156">
        <ele>1032</ele>
        <time>2016-09-20T15:15:54+02:00</time>
      </trkpt>
      <trkpt lat="45.20289" lon="3.71555">
        <ele>1030</ele>
        <time>2016-09-20T15:16:22+02:00</time>
      </trkpt>
      <trkpt lat="45.2026" lon="3.71551">
        <ele>1029</ele>
        <time>2016-09-20T15:16:55+02:00</time>
      </trkpt>
      <trkpt lat="45.20211" lon="3.71557">
        <ele>1026</ele>
        <time>2016-09-20T15:17:17+02:00</time>
      </trkpt>
      <trkpt lat="45.20206" lon="3.7159">
        <ele>1025</ele>
        <time>2016-09-20T15:19:38+02:00</time>
      </trkpt>
      <trkpt lat="45.20224" lon="3.71635">
        <ele>1028</ele>
        <time>2016-09-20T15:20:47+02:00</time>
      </trkpt>
      <trkpt lat="45.20228" lon="3.71674">
        <ele>1030</ele>
        <time>2016-09-20T15:21:18+02:00</time>
      </trkpt>
      <trkpt lat="45.20228" lon="3.71715">
        <ele>1032</ele>
        <time>2016-09-20T15:21:47+02:00</time>
      </trkpt>
      <trkpt lat="45.20233" lon="3.71753">
        <ele>1033</ele>
        <time>2016-09-20T15:22:14+02:00</time>
      </trkpt>
      <trkpt lat="45.20239" lon="3.7179">
        <ele>1033</ele>
        <time>2016-09-20T15:22:40+02:00</time>
      </trkpt>
      <trkpt lat="45.20234" lon="3.71829">
        <ele>1034</ele>
        <time>2016-09-20T15:23:09+02:00</time>
      </trkpt>
      <trkpt lat="45.20236" lon="3.71867">
        <ele>1037</ele>
        <time>2016-09-20T15:25:18+02:00</time>
      </trkpt>
      <trkpt lat="45.2024" lon="3.71905">
        <ele>1040</ele>
        <time>2016-09-20T15:25:47+02:00</time>
      </trkpt>
      <trkpt lat="45.20253" lon="3.71939">
        <ele>1042</ele>
        <time>2016-09-20T15:26:28+02:00</time>
      </trkpt>
      <trkpt lat="45.20264" lon="3.71978">
        <ele>1044</ele>
        <time>2016-09-20T15:26:57+02:00</time>
      </trkpt>
      <trkpt lat="45.20272" lon="3.72005">
        <ele>1046</ele>
        <time>2016-09-20T15:27:25+02:00</time>
      </trkpt>
      <trkpt lat="45.20268" lon="3.72047">
        <ele>1050</ele>
        <time>2016-09-20T15:28:06+02:00</time>
      </trkpt>
      <trkpt lat="45.20256" lon="3.72082">
        <ele>1056</ele>
        <time>2016-09-20T15:28:33+02:00</time>
      </trkpt>
      <trkpt lat="45.20252" lon="3.7212">
        <ele>1060</ele>
        <time>2016-09-20T15:29:02+02:00</time>
      </trkpt>
      <trkpt lat="45.20247" lon="3.72158">
        <ele>1065</ele>
        <time>2016-09-20T15:29:37+02:00</time>
      </trkpt>
      <trkpt lat="45.20239" lon="3.72195">
        <ele>1068</ele>
        <time>2016-09-20T15:30:11+02:00</time>
      </trkpt>
      <trkpt lat="45.2022" lon="3.72223">
        <ele>1074</ele>
        <time>2016-09-20T15:30:43+02:00</time>
      </trkpt>
      <trkpt lat="45.20201" lon="3.72251">
        <ele>1080</ele>
        <time>2016-09-20T15:31:23+02:00</time>
      </trkpt>
      <trkpt lat="45.20183" lon="3.7228">
        <ele>1086</ele>
        <time>2016-09-20T15:32:06+02:00</time>
      </trkpt>
      <trkpt lat="45.20164" lon="3.72308">
        <ele>1093</ele>
        <time>2016-09-20T15:32:51+02:00</time>
      </trkpt>
      <trkpt lat="45.20154" lon="3.72342">
        <ele>1100</ele>
        <time>2016-09-20T15:33:37+02:00</time>
      </trkpt>
      <trkpt lat="45.20149" lon="3.72379">
        <ele>1104</ele>
        <time>2016-09-20T15:34:34+02:00</time>
      </trkpt>
      <trkpt lat="45.20144" lon="3.72421">
        <ele>1108</ele>
        <time>2016-09-20T15:35:46+02:00</time>
      </trkpt>
      <trkpt lat="45.20133" lon="3.72457">
        <ele>1111</ele>
        <time>2016-09-20T15:36:09+02:00</time>
      </trkpt>
      <trkpt lat="45.20122" lon="3.72486">
        <ele>1114</ele>
        <time>2016-09-20T15:36:43+02:00</time>
      </trkpt>
      <trkpt lat="45.201" lon="3.72511">
        <ele>1119</ele>
        <time>2016-09-20T15:37:43+02:00</time>
      </trkpt>
      <trkpt lat="45.20079" lon="3.72536">
        <ele>1122</ele>
        <time>2016-09-20T15:38:06+02:00</time>
      </trkpt>
      <trkpt lat="45.20057" lon="3.72561">
        <ele>1126</ele>
        <time>2016-09-20T15:40:17+02:00</time>
      </trkpt>
      <trkpt lat="45.20041" lon="3.72593">
        <ele>1128</ele>
        <time>2016-09-20T15:40:43+02:00</time>
      </trkpt>
      <trkpt lat="45.2002" lon="3.72618">
        <ele>1132</ele>
        <time>2016-09-20T15:41:16+02:00</time>
      </trkpt>
      <trkpt lat="45.20004" lon="3.72648">
        <ele>1135</ele>
        <time>2016-09-20T15:41:46+02:00</time>
      </trkpt>
      <trkpt lat="45.19985" lon="3.72677">
        <ele>1136</ele>
        <time>2016-09-20T15:42:19+02:00</time>
      </trkpt>
      <trkpt lat="45.19961" lon="3.72695">
        <ele>1140</ele>
        <time>2016-09-20T15:42:55+02:00</time>
      </trkpt>
      <trkpt lat="45.19938" lon="3.72722">
        <ele>1143</ele>
        <time>2016-09-20T15:44:09+02:00</time>
      </trkpt>
      <trkpt lat="45.19916" lon="3.72733">
        <ele>1148</ele>
        <time>2016-09-20T15:46:28+02:00</time>
      </trkpt>
      <trkpt lat="45.199" lon="3.7269">
        <ele>1156</ele>
        <time>2016-09-20T15:47:16+02:00</time>
      </trkpt>
      <trkpt lat="45.19881" lon="3.72642">
        <ele>1161</ele>
        <time>2016-09-20T15:47:55+02:00</time>
      </trkpt>
      <trkpt lat="45.19864" lon="3.72611">
        <ele>1161</ele>
        <time>2016-09-20T15:53:33+02:00</time>
      </trkpt>
      <trkpt lat="45.19848" lon="3.72554">
        <ele>1156</ele>
        <time>2016-09-20T15:54:22+02:00</time>
      </trkpt>
      <trkpt lat="45.1984" lon="3.72514">
        <ele>1152</ele>
        <time>2016-09-20T15:54:56+02:00</time>
      </trkpt>
      <trkpt lat="45.19838" lon="3.72477">
        <ele>1151</ele>
        <time>2016-09-20T15:55:28+02:00</time>
      </trkpt>
      <trkpt lat="45.19837" lon="3.72447">
        <ele>1151</ele>
        <time>2016-09-20T15:55:52+02:00</time>
      </trkpt>
      <trkpt lat="45.19834" lon="3.72418">
        <ele>1151</ele>
        <time>2016-09-20T15:56:22+02:00</time>
      </trkpt>
      <trkpt lat="45.19813" lon="3.72393">
        <ele>1150</ele>
        <time>2016-09-20T15:57:23+02:00</time>
      </trkpt>
      <trkpt lat="45.19794" lon="3.72366">
        <ele>1149</ele>
        <time>2016-09-20T15:57:37+02:00</time>
      </trkpt>
      <trkpt lat="45.19767" lon="3.7235">
        <ele>1147</ele>
        <time>2016-09-20T15:58:04+02:00</time>
      </trkpt>
      <trkpt lat="45.19747" lon="3.72333">
        <ele>1147</ele>
        <time>2016-09-20T16:02:06+02:00</time>
      </trkpt>
      <trkpt lat="45.1972" lon="3.72323">
        <ele>1151</ele>
        <time>2016-09-20T16:02:31+02:00</time>
      </trkpt>
      <trkpt lat="45.19693" lon="3.72321">
        <ele>1154</ele>
        <time>2016-09-20T16:02:55+02:00</time>
      </trkpt>
      <trkpt lat="45.19669" lon="3.72337">
        <ele>1154</ele>
        <time>2016-09-20T16:03:22+02:00</time>
      </trkpt>
      <trkpt lat="45.19645" lon="3.72353">
        <ele>1154</ele>
        <time>2016-09-20T16:05:26+02:00</time>
      </trkpt>
      <trkpt lat="45.19627" lon="3.72386">
        <ele>1151</ele>
        <time>2016-09-20T16:06:16+02:00</time>
      </trkpt>
      <trkpt lat="45.19609" lon="3.72416">
        <ele>1149</ele>
        <time>2016-09-20T16:06:38+02:00</time>
      </trkpt>
      <trkpt lat="45.19593" lon="3.72457">
        <ele>1150</ele>
        <time>2016-09-20T16:07:11+02:00</time>
      </trkpt>
      <trkpt lat="45.19586" lon="3.72503">
        <ele>1150</ele>
        <time>2016-09-20T16:08:24+02:00</time>
      </trkpt>
      <trkpt lat="45.19583" lon="3.72535">
        <ele>1151</ele>
        <time>2016-09-20T16:08:58+02:00</time>
      </trkpt>
      <trkpt lat="45.19578" lon="3.72564">
        <ele>1152</ele>
        <time>2016-09-20T16:10:05+02:00</time>
      </trkpt>
      <trkpt lat="45.19569" lon="3.72588">
        <ele>1151</ele>
        <time>2016-09-20T16:14:10+02:00</time>
      </trkpt>
      <trkpt lat="45.19545" lon="3.72633">
        <ele>1145</ele>
        <time>2016-09-20T16:15:42+02:00</time>
      </trkpt>
      <trkpt lat="45.19523" lon="3.72691">
        <ele>1136</ele>
        <time>2016-09-20T16:17:44+02:00</time>
      </trkpt>
      <trkpt lat="45.19503" lon="3.72717">
        <ele>1130</ele>
        <time>2016-09-20T16:18:29+02:00</time>
      </trkpt>
      <trkpt lat="45.19468" lon="3.72754">
        <ele>1120</ele>
        <time>2016-09-20T16:19:46+02:00</time>
      </trkpt>
      <trkpt lat="45.19447" lon="3.72779">
        <ele>1114</ele>
        <time>2016-09-20T16:20:28+02:00</time>
      </trkpt>
      <trkpt lat="45.19425" lon="3.72804">
        <ele>1108</ele>
        <time>2016-09-20T16:21:08+02:00</time>
      </trkpt>
      <trkpt lat="45.19404" lon="3.72829">
        <ele>1100</ele>
        <time>2016-09-20T16:22:09+02:00</time>
      </trkpt>
      <trkpt lat="45.1938" lon="3.72849">
        <ele>1092</ele>
        <time>2016-09-20T16:24:08+02:00</time>
      </trkpt>
      <trkpt lat="45.19354" lon="3.72863">
        <ele>1084</ele>
        <time>2016-09-20T16:25:03+02:00</time>
      </trkpt>
      <trkpt lat="45.19326" lon="3.72862">
        <ele>1076</ele>
        <time>2016-09-20T16:25:57+02:00</time>
      </trkpt>
      <trkpt lat="45.19298" lon="3.72863">
        <ele>1068</ele>
        <time>2016-09-20T16:26:27+02:00</time>
      </trkpt>
      <trkpt lat="45.19271" lon="3.7287">
        <ele>1060</ele>
        <time>2016-09-20T16:27:14+02:00</time>
      </trkpt>
      <trkpt lat="45.19244" lon="3.72873">
        <ele>1052</ele>
        <time>2016-09-20T16:27:51+02:00</time>
      </trkpt>
      <trkpt lat="45.19194" lon="3.72889">
        <ele>1039</ele>
        <time>2016-09-20T16:28:31+02:00</time>
      </trkpt>
      <trkpt lat="45.19208" lon="3.72851">
        <ele>1043</ele>
        <time>2016-09-20T16:33:31+02:00</time>
      </trkpt>
      <trkpt lat="45.19225" lon="3.72805">
        <ele>1049</ele>
        <time>2016-09-20T16:34:03+02:00</time>
      </trkpt>
      <trkpt lat="45.19229" lon="3.72767">
        <ele>1052</ele>
        <time>2016-09-20T16:35:02+02:00</time>
      </trkpt>
      <trkpt lat="45.19233" lon="3.72729">
        <ele>1056</ele>
        <time>2016-09-20T16:35:27+02:00</time>
      </trkpt>
      <trkpt lat="45.19229" lon="3.72691">
        <ele>1056</ele>
        <time>2016-09-20T16:35:56+02:00</time>
      </trkpt>
      <trkpt lat="45.19228" lon="3.72652">
        <ele>1058</ele>
        <time>2016-09-20T16:36:39+02:00</time>
      </trkpt>
      <trkpt lat="45.19229" lon="3.72614">
        <ele>1060</ele>
        <time>2016-09-20T16:37:56+02:00</time>
      </trkpt>
      <trkpt lat="45.19232" lon="3.72575">
        <ele>1063</ele>
        <time>2016-09-20T16:39:14+02:00</time>
      </trkpt>
      <trkpt lat="45.19241" lon="3.72538">
        <ele>1065</ele>
        <time>2016-09-20T16:39:41+02:00</time>
      </trkpt>
      <trkpt lat="45.19243" lon="3.725">
        <ele>1065</ele>
        <time>2016-09-20T16:40:06+02:00</time>
      </trkpt>
      <trkpt lat="45.19245" lon="3.72461">
        <ele>1062</ele>
        <time>2016-09-20T16:40:33+02:00</time>
      </trkpt>
      <trkpt lat="45.19248" lon="3.72423">
        <ele>1060</ele>
        <time>2016-09-20T16:41:03+02:00</time>
      </trkpt>
      <trkpt lat="45.19256" lon="3.72383">
        <ele>1060</ele>
        <time>2016-09-20T16:42:21+02:00</time>
      </trkpt>
      <trkpt lat="45.19262" lon="3.72345">
        <ele>1059</ele>
        <time>2016-09-20T16:42:37+02:00</time>
      </trkpt>
      <trkpt lat="45.19264" lon="3.72303">
        <ele>1053</ele>
        <time>2016-09-20T16:43:15+02:00</time>
      </trkpt>
      <trkpt lat="45.19275" lon="3.72268">
        <ele>1053</ele>
        <time>2016-09-20T16:43:43+02:00</time>
      </trkpt>
      <trkpt lat="45.19285" lon="3.72233">
        <ele>1052</ele>
        <time>2016-09-20T16:44:15+02:00</time>
      </trkpt>
      <trkpt lat="45.19292" lon="3.72195">
        <ele>1051</ele>
        <time>2016-09-20T16:44:58+02:00</time>
      </trkpt>
      <trkpt lat="45.19307" lon="3.72158">
        <ele>1051</ele>
        <time>2016-09-20T16:45:19+02:00</time>
      </trkpt>
      <trkpt lat="45.1932" lon="3.72128">
        <ele>1050</ele>
        <time>2016-09-20T16:45:43+02:00</time>
      </trkpt>
      <trkpt lat="45.19336" lon="3.72095">
        <ele>1048</ele>
        <time>2016-09-20T16:46:13+02:00</time>
      </trkpt>
      <trkpt lat="45.19353" lon="3.72065">
        <ele>1047</ele>
        <time>2016-09-20T16:46:40+02:00</time>
      </trkpt>
      <trkpt lat="45.19365" lon="3.72031">
        <ele>1043</ele>
        <time>2016-09-20T16:47:10+02:00</time>
      </trkpt>
      <trkpt lat="45.19384" lon="3.72002">
        <ele>1042</ele>
        <time>2016-09-20T16:47:36+02:00</time>
      </trkpt>
      <trkpt lat="45.19401" lon="3.71972">
        <ele>1039</ele>
        <time>2016-09-20T16:48:03+02:00</time>
      </trkpt>
      <trkpt lat="45.19421" lon="3.71944">
        <ele>1038</ele>
        <time>2016-09-20T16:49:09+02:00</time>
      </trkpt>
      <trkpt lat="45.19445" lon="3.71926">
        <ele>1039</ele>
        <time>2016-09-20T16:50:12+02:00</time>
      </trkpt>
      <trkpt lat="45.1947" lon="3.71912">
        <ele>1041</ele>
        <time>2016-09-20T16:50:38+02:00</time>
      </trkpt>
      <trkpt lat="45.19497" lon="3.719">
        <ele>1043</ele>
        <time>2016-09-20T16:51:03+02:00</time>
      </trkpt>
      <trkpt lat="45.19524" lon="3.71892">
        <ele>1046</ele>
        <time>2016-09-20T16:51:34+02:00</time>
      </trkpt>
      <trkpt lat="45.1955" lon="3.71877">
        <ele>1047</ele>
        <time>2016-09-20T16:52:59+02:00</time>
      </trkpt>
      <trkpt lat="45.19578" lon="3.71869">
        <ele>1049</ele>
        <time>2016-09-20T16:53:23+02:00</time>
      </trkpt>
      <trkpt lat="45.19604" lon="3.7186">
        <ele>1049</ele>
        <time>2016-09-20T16:53:52+02:00</time>
      </trkpt>
      <trkpt lat="45.19628" lon="3.7184">
        <ele>1045</ele>
        <time>2016-09-20T16:55:03+02:00</time>
      </trkpt>
      <trkpt lat="45.19655" lon="3.71827">
        <ele>1043</ele>
        <time>2016-09-20T16:55:27+02:00</time>
      </trkpt>
      <trkpt lat="45.19681" lon="3.71818">
        <ele>1043</ele>
        <time>2016-09-20T16:55:52+02:00</time>
      </trkpt>
      <trkpt lat="45.19708" lon="3.71809">
        <ele>1043</ele>
        <time>2016-09-20T16:56:18+02:00</time>
      </trkpt>
      <trkpt lat="45.19735" lon="3.71803">
        <ele>1043</ele>
        <time>2016-09-20T16:56:44+02:00</time>
      </trkpt>
      <trkpt lat="45.19758" lon="3.7178">
        <ele>1039</ele>
        <time>2016-09-20T16:57:11+02:00</time>
      </trkpt>
      <trkpt lat="45.19786" lon="3.71772">
        <ele>1039</ele>
        <time>2016-09-20T16:59:21+02:00</time>
      </trkpt>
      <trkpt lat="45.19811" lon="3.71757">
        <ele>1036</ele>
        <time>2016-09-20T16:59:45+02:00</time>
      </trkpt>
      <trkpt lat="45.19823" lon="3.71723">
        <ele>1030</ele>
        <time>2016-09-20T17:00:42+02:00</time>
      </trkpt>
      <trkpt lat="45.19839" lon="3.71691">
        <ele>1024</ele>
        <time>2016-09-20T17:01:20+02:00</time>
      </trkpt>
      <trkpt lat="45.19854" lon="3.71656">
        <ele>1018</ele>
        <time>2016-09-20T17:01:47+02:00</time>
      </trkpt>
      <trkpt lat="45.19872" lon="3.71627">
        <ele>1015</ele>
        <time>2016-09-20T17:02:10+02:00</time>
      </trkpt>
      <trkpt lat="45.19888" lon="3.71595">
        <ele>1012</ele>
        <time>2016-09-20T17:02:36+02:00</time>
      </trkpt>
      <trkpt lat="45.19918" lon="3.71585">
        <ele>1012</ele>
        <time>2016-09-20T17:03:45+02:00</time>
      </trkpt>
      <trkpt lat="45.1994" lon="3.71582">
        <ele>1013</ele>
        <time>2016-09-20T17:06:45+02:00</time>
      </trkpt>
      <trkpt lat="45.19963" lon="3.71568">
        <ele>1012</ele>
        <time>2016-09-20T17:07:23+02:00</time>
      </trkpt>
      <trkpt lat="45.19989" lon="3.71561">
        <ele>1013</ele>
        <time>2016-09-20T17:07:46+02:00</time>
      </trkpt>
      <trkpt lat="45.20017" lon="3.71562">
        <ele>1014</ele>
        <time>2016-09-20T17:08:16+02:00</time>
      </trkpt>
      <trkpt lat="45.20037" lon="3.71535">
        <ele>1013</ele>
        <time>2016-09-20T17:08:50+02:00</time>
      </trkpt>
      <trkpt lat="45.20039" lon="3.71497">
        <ele>1012</ele>
        <time>2016-09-20T17:09:16+02:00</time>
      </trkpt>
      <trkpt lat="45.20036" lon="3.71458">
        <ele>1013</ele>
        <time>2016-09-20T17:10:32+02:00</time>
      </trkpt>
      <trkpt lat="45.20031" lon="3.7142">
        <ele>1014</ele>
        <time>2016-09-20T17:11:34+02:00</time>
      </trkpt>
      <trkpt lat="45.20039" lon="3.71383">
        <ele>1020</ele>
        <time>2016-09-20T17:12:09+02:00</time>
      </trkpt>
      <trkpt lat="45.20027" lon="3.71348">
        <ele>1023</ele>
        <time>2016-09-20T17:12:37+02:00</time>
      </trkpt>
      <trkpt lat="45.20015" lon="3.71314">
        <ele>1028</ele>
        <time>2016-09-20T17:13:15+02:00</time>
      </trkpt>
      <trkpt lat="45.20002" lon="3.71272">
        <ele>1035</ele>
        <time>2016-09-20T17:14:05+02:00</time>
      </trkpt>
      <trkpt lat="45.20023" lon="3.71283">
        <ele>1036</ele>
        <time>2021-08-03T18:53:40+02:00</time>
      </trkpt>
      <trkpt lat="45.20038" lon="3.71272">
        <ele>1041</ele>
        <time>2016-09-20T17:16:17+02:00</time>
      </trkpt>
      <trkpt lat="45.2002" lon="3.71245">
        <ele>1044</ele>
        <time>2016-09-20T17:17:11+02:00</time>
      </trkpt>
      <trkpt lat="45.20002" lon="3.71215">
        <ele>1045</ele>
        <time>2016-09-20T17:17:43+02:00</time>
      </trkpt>
      <trkpt lat="45.19998" lon="3.71177">
        <ele>1050</ele>
        <time>2016-09-20T17:18:23+02:00</time>
      </trkpt>
      <trkpt lat="45.20002" lon="3.71139">
        <ele>1055</ele>
        <time>2016-09-20T17:19:02+02:00</time>
      </trkpt>
      <trkpt lat="45.20026" lon="3.7112">
        <ele>1061</ele>
        <time>2016-09-20T17:22:04+02:00</time>
      </trkpt>
      <trkpt lat="45.20053" lon="3.71113">
        <ele>1067</ele>
        <time>2016-09-20T17:23:09+02:00</time>
      </trkpt>
      <trkpt lat="45.20077" lon="3.71095">
        <ele>1073</ele>
        <time>2016-09-20T17:23:56+02:00</time>
      </trkpt>
      <trkpt lat="45.20103" lon="3.71081">
        <ele>1079</ele>
        <time>2016-09-20T17:24:59+02:00</time>
      </trkpt>
      <trkpt lat="45.2013" lon="3.71072">
        <ele>1086</ele>
        <time>2016-09-20T17:25:53+02:00</time>
      </trkpt>
      <trkpt lat="45.20156" lon="3.71058">
        <ele>1093</ele>
        <time>2016-09-20T17:27:35+02:00</time>
      </trkpt>
      <trkpt lat="45.20176" lon="3.71084">
        <ele>1091</ele>
        <time>2016-09-20T17:28:48+02:00</time>
      </trkpt>
      <trkpt lat="45.20201" lon="3.71068">
        <ele>1090</ele>
        <time>2016-09-20T17:32:11+02:00</time>
      </trkpt>
      <trkpt lat="45.20205" lon="3.71105">
        <ele>1085</ele>
        <time>2016-09-20T17:39:35+02:00</time>
      </trkpt>
      <trkpt lat="45.20195" lon="3.71135">
        <ele>1080</ele>
        <time>2016-09-20T17:40:05+02:00</time>
      </trkpt>
      <trkpt lat="45.20176" lon="3.71139">
        <ele>1081</ele>
        <time>2021-08-03T18:55:00+02:00</time>
      </trkpt>
      <trkpt lat="45.20154" lon="3.71134">
        <ele>1081</ele>
        <time>2016-09-20T17:41:37+02:00</time>
      </trkpt>
      <trkpt lat="45.20163" lon="3.71157">
        <ele>1078</ele>
        <time>2021-08-03T18:55:10+02:00</time>
      </trkpt>
      <trkpt lat="45.20176" lon="3.71176">
        <ele>1075</ele>
        <time>2016-09-20T17:42:21+02:00</time>
      </trkpt>
      <trkpt lat="45.20211" lon="3.71178">
        <ele>1072</ele>
        <time>2016-09-20T17:42:56+02:00</time>
      </trkpt>
      <trkpt lat="45.2021" lon="3.71204">
        <ele>1068</ele>
        <time>2016-09-20T17:44:02+02:00</time>
      </trkpt>
      <trkpt lat="45.2021" lon="3.71224">
        <ele>1065</ele>
        <time>2021-08-03T18:55:30+02:00</time>
      </trkpt>
      <trkpt lat="45.20241" lon="3.71214">
        <ele>1065</ele>
        <time>2016-09-20T17:44:31+02:00</time>
      </trkpt>
      <trkpt lat="45.20265" lon="3.71203">
        <ele>1065</ele>
        <time>2016-09-20T17:44:57+02:00</time>
      </trkpt>
      <trkpt lat="45.20294" lon="3.71198">
        <ele>1063</ele>
        <time>2016-09-20T17:45:23+02:00</time>
      </trkpt>
      <trkpt lat="45.2032" lon="3.71199">
        <ele>1061</ele>
        <time>2016-09-20T17:45:46+02:00</time>
      </trkpt>
      <trkpt lat="45.20347" lon="3.71197">
        <ele>1060</ele>
        <time>2016-09-20T17:46:13+02:00</time>
      </trkpt>
      <trkpt lat="45.20374" lon="3.71197">
        <ele>1060</ele>
        <time>2016-09-20T17:46:38+02:00</time>
      </trkpt>
      <trkpt lat="45.20401" lon="3.71199">
        <ele>1059</ele>
        <time>2016-09-20T17:47:08+02:00</time>
      </trkpt>
      <trkpt lat="45.20415" lon="3.71209">
        <ele>1058</ele>
        <time>2021-08-03T18:56:10+02:00</time>
      </trkpt>
      <trkpt lat="45.20425" lon="3.71222">
        <ele>1058</ele>
        <time>2016-09-20T17:47:30+02:00</time>
      </trkpt>
      <trkpt lat="45.20433" lon="3.71231">
        <ele>1058</ele>
        <time>2021-08-03T18:56:20+02:00</time>
      </trkpt>
      <trkpt lat="45.20449" lon="3.71241">
        <ele>1058</ele>
        <time>2016-09-20T17:48:36+02:00</time>
      </trkpt>
      <trkpt lat="45.20473" lon="3.71258">
        <ele>1059</ele>
        <time>2016-09-20T17:49:48+02:00</time>
      </trkpt>
      <trkpt lat="45.20498" lon="3.71277">
        <ele>1060</ele>
        <time>2016-09-20T17:50:13+02:00</time>
      </trkpt>
      <trkpt lat="45.20521" lon="3.71294">
        <ele>1061</ele>
        <time>2016-09-20T17:50:42+02:00</time>
      </trkpt>
      <trkpt lat="45.20548" lon="3.71306">
        <ele>1062</ele>
        <time>2016-09-20T17:51:06+02:00</time>
      </trkpt>
      <trkpt lat="45.20576" lon="3.71318">
        <ele>1063</ele>
        <time>2016-09-20T17:51:39+02:00</time>
      </trkpt>
      <trkpt lat="45.20604" lon="3.71326">
        <ele>1063</ele>
        <time>2016-09-20T17:52:03+02:00</time>
      </trkpt>
      <trkpt lat="45.20632" lon="3.71338">
        <ele>1061</ele>
        <time>2016-09-20T17:52:30+02:00</time>
      </trkpt>
      <trkpt lat="45.20658" lon="3.71335">
        <ele>1061</ele>
        <time>2016-09-20T17:53:01+02:00</time>
      </trkpt>
      <trkpt lat="45.20685" lon="3.71323">
        <ele>1060</ele>
        <time>2016-09-20T17:53:33+02:00</time>
      </trkpt>
      <trkpt lat="45.20709" lon="3.71303">
        <ele>1059</ele>
        <time>2016-09-20T17:53:56+02:00</time>
      </trkpt>
      <trkpt lat="45.2073" lon="3.71277">
        <ele>1059</ele>
        <time>2016-09-20T17:54:24+02:00</time>
      </trkpt>
      <trkpt lat="45.20752" lon="3.7125">
        <ele>1059</ele>
        <time>2016-09-20T17:54:50+02:00</time>
      </trkpt>
      <trkpt lat="45.20773" lon="3.71226">
        <ele>1058</ele>
        <time>2016-09-20T17:55:19+02:00</time>
      </trkpt>
      <trkpt lat="45.2079" lon="3.71196">
        <ele>1057</ele>
        <time>2016-09-20T17:55:46+02:00</time>
      </trkpt>
      <trkpt lat="45.20808" lon="3.71167">
        <ele>1057</ele>
        <time>2016-09-20T17:56:21+02:00</time>
      </trkpt>
      <trkpt lat="45.20831" lon="3.71146">
        <ele>1054</ele>
        <time>2016-09-20T17:56:46+02:00</time>
      </trkpt>
      <trkpt lat="45.20852" lon="3.71121">
        <ele>1051</ele>
        <time>2016-09-20T17:57:10+02:00</time>
      </trkpt>
      <trkpt lat="45.20876" lon="3.711">
        <ele>1048</ele>
        <time>2016-09-20T17:57:36+02:00</time>
      </trkpt>
      <trkpt lat="45.209" lon="3.71079">
        <ele>1045</ele>
        <time>2016-09-20T17:58:32+02:00</time>
      </trkpt>
      <trkpt lat="45.20926" lon="3.71063">
        <ele>1042</ele>
        <time>2016-09-20T17:58:53+02:00</time>
      </trkpt>
      <trkpt lat="45.20949" lon="3.71044">
        <ele>1040</ele>
        <time>2016-09-20T17:59:22+02:00</time>
      </trkpt>
      <trkpt lat="45.20969" lon="3.71017">
        <ele>1039</ele>
        <time>2016-09-20T17:59:44+02:00</time>
      </trkpt>
      <trkpt lat="45.20993" lon="3.70999">
        <ele>1037</ele>
        <time>2016-09-20T18:00:12+02:00</time>
      </trkpt>
    </trkseg>
  </trk>
</gpx>